Aldea Apeleg, Argentina
Current Conditions -  °F | °C
As of 10:00 AM on Wednesday 26 Nov 2014 (Local Time) from SCBA Reporting Station
Clear Clear  
Wind Chill: 50°   Ceiling: Unl
Heat Index: 50°   Visibility: 6mi
Dew Point: 36°   Wind: 25mph
Humidity: 58%   Direction: 310°NW
Pressure: 29.97"   Gusts: NA
Location:  44.86°S, 70.84°W
Report Text: SCBA 261300Z 31022KT CAVOK 10/02 Q1015
Loading
Personal Weather Stations






























Interactive Weather Map New forecast layout! Learn more

10-Day Weather Forecast

Advertisements
Track Severe Weather on mobile